Time;durP1;ratioP1;P1;durP2;ratioP2;P2;SDS_P1;SDS_P2;PMS_P1;PMS_P2;Temp;Humidity;BMP_temperature;BMP_pressure;BME280_temperature;BME280_humidity;BME280_pressure;Samples;Min_cycle;Max_cycle;Signal;HPM_P1;HPM_P2
2023/04/11 00:00:20;;;;;;;9.30;2.03;;;13.10;52.70;;;;;;5020075;28;20160;-74
2023/04/11 00:02:46;;;;;;;6.30;2.30;;;13.10;53.30;;;;;;5014291;28;20030;-75
2023/04/11 00:05:12;;;;;;;7.45;2.00;;;13.20;53.00;;;;;;5022105;28;20108;-74
2023/04/11 00:07:38;;;;;;;8.57;2.03;;;13.10;52.80;;;;;;5025397;28;20408;-75
2023/04/11 00:10:06;;;;;;;7.68;1.63;;;13.10;52.90;;;;;;5003183;28;20057;-75
2023/04/11 00:12:32;;;;;;;8.25;1.80;;;13.10;52.90;;;;;;5022307;28;20152;-75
2023/04/11 00:14:58;;;;;;;9.55;3.33;;;13.10;52.90;;;;;;5023713;28;20528;-75
2023/04/11 00:17:24;;;;;;;6.85;2.38;;;13.10;53.00;;;;;;5019700;28;20249;-75
2023/04/11 00:19:52;;;;;;;6.10;1.50;;;13.10;53.10;;;;;;5022151;28;20124;-75
2023/04/11 00:22:18;;;;;;;6.43;1.35;;;13.10;53.10;;;;;;5017317;28;20132;-75
2023/04/11 00:24:44;;;;;;;11.80;3.63;;;13.10;53.10;;;;;;5016545;28;20041;-75
2023/04/11 00:27:10;;;;;;;7.72;1.60;;;13.10;53.20;;;;;;5020958;28;20450;-75
2023/04/11 00:29:36;;;;;;;7.30;1.73;;;13.10;53.20;;;;;;5023519;28;20037;-75
2023/04/11 00:32:03;;;;;;;8.93;1.98;;;13.10;53.30;;;;;;5024246;28;20042;-75
2023/04/11 00:34:29;;;;;;;9.82;2.25;;;13.10;53.30;;;;;;5020626;28;20037;-75
2023/04/11 00:36:55;;;;;;;5.20;2.17;;;13.20;53.50;;;;;;5018931;28;20096;-75
2023/04/11 00:39:21;;;;;;;6.82;2.08;;;13.20;53.50;;;;;;5021794;28;20476;-75
2023/04/11 00:41:47;;;;;;;5.05;1.60;;;13.20;53.50;;;;;;5024488;28;20053;-75
2023/04/11 00:44:14;;;;;;;5.93;2.17;;;13.20;53.50;;;;;;5009431;28;20393;-75
2023/04/11 00:46:43;;;;;;;6.80;1.58;;;13.20;53.40;;;;;;5005694;28;20646;-75
2023/04/11 00:49:10;;;;;;;7.80;1.50;;;13.20;53.40;;;;;;5003147;28;20038;-75
2023/04/11 00:51:36;;;;;;;5.30;2.17;;;13.20;53.30;;;;;;5006638;28;20419;-74
2023/04/11 00:54:08;;;;;;;10.68;2.30;;;13.20;53.80;;;;;;4998785;28;20030;-75
2023/04/11 00:56:34;;;;;;;7.97;2.05;;;13.20;53.30;;;;;;5021433;28;20041;-75
2023/04/11 00:59:00;;;;;;;10.18;1.83;;;13.10;53.10;;;;;;5000762;28;20093;-75
2023/04/11 01:01:28;;;;;;;6.85;2.10;;;13.10;53.20;;;;;;5020434;28;20144;-76
2023/04/11 01:03:54;;;;;;;9.13;1.52;;;13.10;53.30;;;;;;5018277;28;20292;-75
2023/04/11 01:06:22;;;;;;;10.70;1.85;;;13.00;53.10;;;;;;4997352;28;20405;-75
2023/04/11 01:08:49;;;;;;;7.55;2.65;;;13.00;53.30;;;;;;5019221;28;20046;-75
2023/04/11 01:11:18;;;;;;;7.82;2.83;;;13.00;53.30;;;;;;5022763;28;20033;-75
2023/04/11 01:13:45;;;;;;;9.70;2.00;;;13.00;53.40;;;;;;4988896;28;20041;-74
2023/04/11 01:16:13;;;;;;;9.43;2.20;;;12.90;53.30;;;;;;5002924;28;20037;-75
2023/04/11 01:18:40;;;;;;;8.32;2.88;;;13.00;53.50;;;;;;4997174;28;20030;-75
2023/04/11 01:21:08;;;;;;;7.22;2.03;;;12.90;53.40;;;;;;4983488;28;20044;-75
2023/04/11 01:23:34;;;;;;;8.35;2.78;;;12.90;53.50;;;;;;4995885;28;20041;-75
2023/04/11 01:26:00;;;;;;;7.38;1.88;;;12.90;53.50;;;;;;5003681;28;20796;-76
2023/04/11 01:28:26;;;;;;;8.07;2.20;;;12.90;53.60;;;;;;4987503;28;20179;-75
2023/04/11 01:31:12;;;;;;;9.07;2.85;;;12.80;53.50;;;;;;4928311;29;20162;-75
2023/04/11 01:33:38;;;;;;;7.70;1.70;;;12.80;53.50;;;;;;4983024;28;20537;-75
2023/04/11 01:36:06;;;;;;;8.38;2.05;;;12.80;53.50;;;;;;4983165;28;20136;-75
2023/04/11 01:38:32;;;;;;;9.48;2.30;;;12.80;53.60;;;;;;5021828;28;20472;-76
2023/04/11 01:40:59;;;;;;;8.02;2.63;;;12.80;53.60;;;;;;5017739;28;20058;-75
2023/04/11 01:43:25;;;;;;;7.10;1.98;;;12.80;53.70;;;;;;5022455;28;20029;-75
2023/04/11 01:45:51;;;;;;;11.23;1.92;;;12.70;53.60;;;;;;5005322;28;20400;-75
2023/04/11 01:48:19;;;;;;;9.23;2.25;;;12.70;53.60;;;;;;5002538;28;20057;-75
2023/04/11 01:50:45;;;;;;;6.35;1.67;;;12.70;53.70;;;;;;5022771;28;20039;-75
2023/04/11 01:53:10;;;;;;;6.35;1.90;;;12.70;53.70;;;;;;5008670;28;20436;-75
2023/04/11 01:55:36;;;;;;;6.60;2.30;;;12.70;53.70;;;;;;5023205;28;20041;-75
2023/04/11 01:58:02;;;;;;;7.60;2.10;;;12.70;53.80;;;;;;5024727;28;20114;-75
2023/04/11 02:00:29;;;;;;;9.88;2.58;;;12.70;53.80;;;;;;5024945;28;20037;-75
2023/04/11 02:02:55;;;;;;;7.90;2.60;;;12.60;53.70;;;;;;5026936;28;20029;-74
2023/04/11 02:05:22;;;;;;;9.45;3.50;;;12.60;53.70;;;;;;5024904;28;20038;-75
2023/04/11 02:07:48;;;;;;;8.05;2.45;;;12.60;53.70;;;;;;5025918;28;20128;-75
2023/04/11 02:10:17;;;;;;;12.05;2.35;;;12.60;53.70;;;;;;5039629;28;20072;-75
2023/04/11 02:12:43;;;;;;;7.25;2.17;;;12.60;53.70;;;;;;5017168;28;20477;-74
2023/04/11 02:15:09;;;;;;;9.40;2.40;;;12.60;53.70;;;;;;5023919;28;20075;-75
2023/04/11 02:17:35;;;;;;;8.93;2.53;;;12.60;53.70;;;;;;5030700;28;20033;-75
2023/04/11 02:20:05;;;;;;;8.88;2.70;;;12.60;53.80;;;;;;5022255;28;20385;-76
2023/04/11 02:22:32;;;;;;;5.82;1.83;;;12.60;53.90;;;;;;5024949;28;20106;-76
2023/04/11 02:24:58;;;;;;;10.13;2.65;;;12.60;53.90;;;;;;5017602;28;20033;-75
2023/04/11 02:27:24;;;;;;;9.40;2.83;;;12.60;53.90;;;;;;5023365;28;20591;-75
2023/04/11 02:29:53;;;;;;;5.70;1.60;;;12.60;53.90;;;;;;5024153;28;20049;-76
2023/04/11 02:32:19;;;;;;;3.90;1.33;;;12.60;53.90;;;;;;5016554;28;20026;-76
2023/04/11 02:34:46;;;;;;;4.10;1.40;;;12.60;53.80;;;;;;5024962;28;20029;-75
2023/04/11 02:37:12;;;;;;;3.10;0.98;;;12.50;53.60;;;;;;5025380;28;20051;-75
2023/04/11 02:39:38;;;;;;;2.70;1.02;;;12.50;53.60;;;;;;5007304;28;20026;-75
2023/04/11 02:42:04;;;;;;;4.28;1.50;;;12.50;53.60;;;;;;5015239;28;20052;-75
2023/04/11 02:44:31;;;;;;;4.07;1.23;;;12.50;53.60;;;;;;5010053;28;20025;-75
2023/04/11 02:46:58;;;;;;;4.10;1.58;;;12.40;53.40;;;;;;5017642;28;20073;-77
2023/04/11 02:49:25;;;;;;;3.58;1.30;;;12.40;53.40;;;;;;5025684;28;20048;-75
2023/04/11 02:51:52;;;;;;;2.85;1.65;;;12.40;53.40;;;;;;5031481;28;20037;-76
2023/04/11 02:54:18;;;;;;;4.82;2.03;;;12.30;53.80;;;;;;5028769;28;20029;-75
2023/04/11 02:56:44;;;;;;;2.85;1.08;;;12.30;53.20;;;;;;5036579;28;20033;-76
2023/04/11 02:59:10;;;;;;;3.35;1.27;;;12.30;53.30;;;;;;5004576;28;20065;-76
2023/04/11 03:01:37;;;;;;;4.35;0.90;;;12.20;53.10;;;;;;5025604;28;20037;-75
2023/04/11 03:04:03;;;;;;;4.05;1.17;;;12.20;53.20;;;;;;5024821;28;20037;-75
2023/04/11 03:06:40;;;;;;;4.07;1.02;;;12.20;53.20;;;;;;5015921;28;20033;-75
2023/04/11 03:09:06;;;;;;;6.93;2.13;;;12.20;53.20;;;;;;5006392;28;20136;-75
2023/04/11 03:11:33;;;;;;;3.90;1.08;;;12.10;53.10;;;;;;5014660;28;20212;-75
2023/04/11 03:14:00;;;;;;;3.38;1.08;;;12.10;53.10;;;;;;5002847;28;20037;-75
2023/04/11 03:16:26;;;;;;;5.65;1.73;;;12.10;53.10;;;;;;5000645;28;20052;-76
2023/04/11 03:18:53;;;;;;;3.97;1.00;;;12.00;53.60;;;;;;5007670;28;20037;-74
2023/04/11 03:21:19;;;;;;;3.53;0.90;;;12.00;53.00;;;;;;5022557;28;20056;-75
2023/04/11 03:23:45;;;;;;;3.70;1.50;;;12.00;53.10;;;;;;5020035;28;20441;-75
2023/04/11 03:26:13;;;;;;;3.22;1.13;;;12.00;53.20;;;;;;5003026;28;20033;-74
2023/04/11 03:28:41;;;;;;;2.35;0.85;;;11.90;53.00;;;;;;5001403;28;20041;-74
2023/04/11 03:31:08;;;;;;;3.85;1.00;;;12.00;53.30;;;;;;4991042;28;20413;-75
2023/04/11 03:33:34;;;;;;;2.35;0.88;;;11.90;53.10;;;;;;5007532;28;20032;-75
2023/04/11 03:36:00;;;;;;;2.72;0.93;;;11.90;53.10;;;;;;5005295;28;20022;-75
2023/04/11 03:38:26;;;;;;;6.68;1.67;;;11.80;53.00;;;;;;4999869;28;20042;-74
2023/04/11 03:40:52;;;;;;;4.03;1.10;;;11.80;53.00;;;;;;5001794;28;20040;-74
2023/04/11 03:43:21;;;;;;;4.72;0.98;;;11.80;53.10;;;;;;5000173;28;20120;-74
2023/04/11 03:45:50;;;;;;;4.43;1.00;;;11.70;52.90;;;;;;5005639;28;20033;-74
2023/04/11 03:48:28;;;;;;;3.70;0.88;;;11.70;53.00;;;;;;5017396;28;20061;-74
2023/04/11 03:50:59;;;;;;;5.63;0.73;;;11.70;53.00;;;;;;5023248;28;20065;-74
2023/04/11 03:53:34;;;;;;;2.10;0.82;;;11.70;53.10;;;;;;5007166;28;20084;-74
2023/04/11 03:56:09;;;;;;;2.50;0.65;;;11.60;53.50;;;;;;5023057;28;20033;-74
2023/04/11 03:58:37;;;;;;;3.60;1.38;;;11.60;53.00;;;;;;5004255;28;20570;-73
2023/04/11 04:01:04;;;;;;;3.75;0.82;;;11.60;53.00;;;;;;5017354;28;20021;-74
2023/04/11 04:03:31;;;;;;;4.78;1.15;;;11.60;53.10;;;;;;5023132;28;20048;-74
2023/04/11 04:05:58;;;;;;;3.92;1.15;;;11.50;53.00;;;;;;5004413;28;20474;-74
2023/04/11 04:08:24;;;;;;;3.10;0.68;;;11.40;52.80;;;;;;5016088;28;20033;-74
2023/04/11 04:10:50;;;;;;;3.72;0.90;;;11.50;53.10;;;;;;5027372;28;20041;-74
2023/04/11 04:13:17;;;;;;;2.40;1.20;;;11.40;53.00;;;;;;5026298;28;20045;-74
2023/04/11 04:15:53;;;;;;;5.97;1.58;;;11.40;53.00;;;;;;5031339;28;20111;-74
2023/04/11 04:18:25;;;;;;;3.35;1.13;;;11.40;53.10;;;;;;5029396;28;20421;-76
2023/04/11 04:20:51;;;;;;;4.57;1.33;;;11.30;53.00;;;;;;5011445;28;20045;-76
2023/04/11 04:23:19;;;;;;;2.47;1.10;;;11.30;53.10;;;;;;5025971;28;20504;-77
2023/04/11 04:25:56;;;;;;;3.90;1.63;;;11.20;53.00;;;;;;5018347;28;20424;-76
2023/04/11 04:28:24;;;;;;;7.35;2.35;;;11.20;53.10;;;;;;5024470;28;20071;-76
2023/04/11 04:30:53;;;;;;;6.63;1.40;;;11.20;53.20;;;;;;5019281;28;20103;-77
2023/04/11 04:33:21;;;;;;;4.20;1.20;;;11.10;53.00;;;;;;5024477;28;20037;-76
2023/04/11 04:35:58;;;;;;;4.93;1.20;;;11.10;53.00;;;;;;5033345;28;20113;-77
2023/04/11 04:38:27;;;;;;;4.82;1.50;;;11.10;53.70;;;;;;5026760;28;20699;-76
2023/04/11 04:40:56;;;;;;;4.10;1.80;;;11.10;53.20;;;;;;5025176;28;20572;-76
2023/04/11 04:43:25;;;;;;;5.13;2.20;;;11.10;53.20;;;;;;5017287;28;20037;-76
2023/04/11 04:46:07;;;;;;;2.30;1.10;;;11.00;53.10;;;;;;5039222;28;20061;-76
2023/04/11 04:48:40;;;;;;;3.53;1.10;;;11.00;53.10;;;;;;5013353;28;20473;-76
2023/04/11 04:51:07;;;;;;;7.15;1.40;;;11.00;53.10;;;;;;5018781;28;20100;-75
2023/04/11 04:53:37;;;;;;;6.30;1.58;;;11.00;53.20;;;;;;5017167;28;20033;-78
2023/04/11 04:56:05;;;;;;;3.88;1.30;;;11.00;53.30;;;;;;5011333;28;20522;-75
2023/04/11 04:58:38;;;;;;;3.53;1.10;;;11.00;53.30;;;;;;5017923;28;20040;-76
2023/04/11 05:01:07;;;;;;;5.57;1.30;;;10.90;53.10;;;;;;5017252;28;20057;-75
2023/04/11 05:03:34;;;;;;;3.97;1.35;;;10.90;53.20;;;;;;4995395;28;20049;-75
2023/04/11 05:06:02;;;;;;;4.82;1.80;;;10.90;53.30;;;;;;5023473;28;20042;-75
2023/04/11 05:08:30;;;;;;;6.20;1.45;;;10.90;53.30;;;;;;5010489;28;20029;-77
2023/04/11 05:11:00;;;;;;;5.28;1.10;;;10.90;53.40;;;;;;5015641;28;20599;-77
2023/04/11 05:13:28;;;;;;;2.90;1.10;;;10.80;53.30;;;;;;5008934;28;20493;-79
2023/04/11 05:15:53;;;;;;;5.03;1.08;;;10.80;53.50;;;;;;5004616;28;20128;-79
2023/04/11 05:18:23;;;;;;;3.70;1.25;;;10.80;53.50;;;;;;5017187;28;20026;-77
2023/04/11 05:20:50;;;;;;;5.35;1.67;;;10.70;53.30;;;;;;5012539;28;20081;-77
2023/04/11 05:23:20;;;;;;;4.90;1.50;;;10.70;53.40;;;;;;5020086;28;20236;-75
2023/04/11 05:25:47;;;;;;;5.28;1.20;;;10.70;53.40;;;;;;5017882;28;20025;-77
2023/04/11 05:28:15;;;;;;;4.57;1.10;;;10.70;53.50;;;;;;5019452;28;20033;-76
2023/04/11 05:30:41;;;;;;;5.18;1.30;;;10.60;53.30;;;;;;5019519;28;20038;-75
2023/04/11 05:33:07;;;;;;;4.90;1.40;;;10.60;53.40;;;;;;5022614;28;20033;-77
2023/04/11 05:35:33;;;;;;;7.88;1.58;;;10.60;53.50;;;;;;5021651;28;20091;-75
2023/04/11 05:37:59;;;;;;;3.00;1.13;;;10.60;53.50;;;;;;5017825;28;20021;-76
2023/04/11 05:40:25;;;;;;;3.05;1.10;;;10.60;53.50;;;;;;5022210;28;20079;-76
2023/04/11 05:42:51;;;;;;;4.90;1.15;;;10.60;54.10;;;;;;5008457;28;20121;-74
2023/04/11 05:45:18;;;;;;;3.80;1.20;;;10.60;53.50;;;;;;5010272;28;20021;-75
2023/04/11 05:47:44;;;;;;;6.65;1.55;;;10.60;53.50;;;;;;5014232;28;20178;-74
2023/04/11 05:50:12;;;;;;;6.05;1.50;;;10.60;53.60;;;;;;5015854;28;20449;-76
2023/04/11 05:52:38;;;;;;;6.90;2.33;;;10.60;53.60;;;;;;5013387;28;20541;-74
2023/04/11 05:55:06;;;;;;;3.97;2.00;;;10.60;53.70;;;;;;5011168;28;20510;-75
2023/04/11 05:57:32;;;;;;;7.97;1.80;;;10.70;54.40;;;;;;5019484;28;20029;-74
2023/04/11 06:00:00;;;;;;;4.05;1.10;;;10.80;55.20;;;;;;5009337;28;20123;-77
2023/04/11 06:02:29;;;;;;;7.53;1.92;;;10.90;55.90;;;;;;5013459;28;20499;-73
2023/04/11 06:04:55;;;;;;;5.43;1.75;;;11.10;56.80;;;;;;5011941;28;20029;-73
2023/04/11 06:07:21;;;;;;;9.98;1.98;;;11.20;57.30;;;;;;5008905;28;20496;-73
2023/04/11 06:09:47;;;;;;;7.25;1.60;;;11.40;58.10;;;;;;5009799;28;20041;-75
2023/04/11 06:12:13;;;;;;;6.53;1.63;;;11.60;58.60;;;;;;5012678;28;20033;-75
2023/04/11 06:14:39;;;;;;;5.70;1.38;;;11.70;58.80;;;;;;5014350;28;20029;-75
2023/04/11 06:17:05;;;;;;;5.05;1.73;;;11.90;59.10;;;;;;5015223;28;20029;-76
2023/04/11 06:19:31;;;;;;;5.78;1.55;;;12.00;59.00;;;;;;5012163;28;20083;-75
2023/04/11 06:21:57;;;;;;;5.57;1.67;;;12.00;58.80;;;;;;5013228;28;20041;-76
2023/04/11 06:24:38;;;;;;;5.07;1.92;;;12.10;58.90;;;;;;5011120;28;20025;-75
2023/04/11 06:27:08;;;;;;;4.95;1.83;;;12.10;58.70;;;;;;5012245;28;20119;-75
2023/04/11 06:29:34;;;;;;;4.97;1.00;;;12.10;58.40;;;;;;5010854;28;20123;-74
2023/04/11 06:32:00;;;;;;;4.10;1.20;;;12.10;58.30;;;;;;5017491;28;20025;-74
2023/04/11 06:34:26;;;;;;;4.20;1.42;;;12.10;58.20;;;;;;5031666;28;20051;-73
2023/04/11 06:36:52;;;;;;;3.55;1.20;;;12.10;58.20;;;;;;5009321;28;20033;-73
2023/04/11 06:39:19;;;;;;;4.78;1.10;;;12.10;58.00;;;;;;5015593;28;20354;-74
2023/04/11 06:41:46;;;;;;;6.13;1.25;;;12.10;58.00;;;;;;5015705;28;20124;-73
2023/04/11 06:44:19;;;;;;;6.15;1.00;;;12.10;58.00;;;;;;5012790;28;20045;-75
2023/04/11 06:46:45;;;;;;;4.32;1.60;;;12.10;58.00;;;;;;5016286;28;20033;-75
2023/04/11 06:49:11;;;;;;;4.28;1.10;;;12.10;57.90;;;;;;5006094;28;20038;-75
2023/04/11 06:51:37;;;;;;;3.97;0.80;;;12.10;58.00;;;;;;5021220;28;20037;-75
2023/04/11 06:54:05;;;;;;;2.75;0.95;;;12.30;58.10;;;;;;5005687;28;20402;-75
2023/04/11 06:56:31;;;;;;;3.13;1.00;;;12.40;57.90;;;;;;5017074;28;20478;-74
2023/04/11 06:58:57;;;;;;;3.17;0.80;;;12.60;58.10;;;;;;5015693;28;20647;-76
2023/04/11 07:01:24;;;;;;;4.35;1.02;;;12.70;58.10;;;;;;5012343;28;20072;-74
2023/04/11 07:03:52;;;;;;;2.78;0.90;;;13.00;58.30;;;;;;5012887;28;20037;-74
2023/04/11 07:06:18;;;;;;;3.35;0.70;;;13.30;57.90;;;;;;5017236;28;20191;-75
2023/04/11 07:08:45;;;;;;;3.78;1.30;;;13.50;57.80;;;;;;5010258;28;20795;-75
2023/04/11 07:11:11;;;;;;;3.33;1.35;;;13.80;58.00;;;;;;5013495;28;20060;-75
2023/04/11 07:13:37;;;;;;;6.97;1.65;;;14.10;57.70;;;;;;5007800;28;20798;-75
2023/04/11 07:16:03;;;;;;;3.85;1.27;;;14.20;57.20;;;;;;5022430;28;20029;-75
2023/04/11 07:18:29;;;;;;;4.00;1.30;;;14.30;57.10;;;;;;5007785;28;20124;-75
2023/04/11 07:20:57;;;;;;;6.03;1.02;;;14.40;57.10;;;;;;5006181;28;20034;-75
2023/04/11 07:23:23;;;;;;;8.63;2.35;;;14.40;56.80;;;;;;4997152;28;20053;-75
2023/04/11 07:25:50;;;;;;;6.93;1.20;;;14.40;56.60;;;;;;5011779;28;20033;-74
2023/04/11 07:28:16;;;;;;;7.60;1.23;;;14.40;56.50;;;;;;5012342;28;20556;-76
2023/04/11 07:30:42;;;;;;;5.25;0.80;;;14.40;56.40;;;;;;5002217;28;20108;-75
2023/04/11 07:33:08;;;;;;;4.43;1.63;;;14.30;56.10;;;;;;5011330;28;20500;-75
2023/04/11 07:35:34;;;;;;;4.53;1.95;;;14.30;56.10;;;;;;5010027;28;20044;-74
2023/04/11 07:38:00;;;;;;;3.90;1.00;;;14.30;56.10;;;;;;5012995;28;20180;-75
2023/04/11 07:40:27;;;;;;;4.50;1.23;;;14.40;56.10;;;;;;5013452;28;20292;-74
2023/04/11 07:42:53;;;;;;;3.20;1.08;;;14.40;55.90;;;;;;5012488;28;20052;-74
2023/04/11 07:45:20;;;;;;;5.32;1.67;;;14.40;55.70;;;;;;5017720;28;20572;-75
2023/04/11 07:47:47;;;;;;;4.43;1.20;;;14.50;55.80;;;;;;5016621;28;20057;-73
2023/04/11 07:50:13;;;;;;;16.05;1.33;;;14.40;55.50;;;;;;5012711;28;20191;-74
2023/04/11 07:52:39;;;;;;;11.93;2.05;;;14.50;55.70;;;;;;5012989;28;20032;-76
2023/04/11 07:55:05;;;;;;;8.02;2.08;;;14.60;55.60;;;;;;5016677;28;20123;-74
2023/04/11 07:57:32;;;;;;;6.22;1.48;;;14.70;55.40;;;;;;5007801;28;20034;-75
2023/04/11 07:59:58;;;;;;;5.32;1.85;;;14.70;55.40;;;;;;5014796;28;20033;-74
2023/04/11 08:02:24;;;;;;;7.00;1.45;;;14.90;55.60;;;;;;5019377;28;20327;-74
2023/04/11 08:04:51;;;;;;;4.88;1.77;;;15.00;55.50;;;;;;5020871;28;20038;-75
2023/04/11 08:07:16;;;;;;;4.85;1.30;;;15.10;55.30;;;;;;5020697;28;20044;-75
2023/04/11 08:09:44;;;;;;;7.38;2.55;;;15.30;55.30;;;;;;5007606;28;20045;-76
2023/04/11 08:12:10;;;;;;;4.47;1.08;;;15.30;55.10;;;;;;5009212;28;20566;-75
2023/04/11 08:14:36;;;;;;;4.57;1.13;;;15.30;54.90;;;;;;5017444;28;20025;-77
2023/04/11 08:17:02;;;;;;;6.70;1.33;;;15.40;55.00;;;;;;5029033;28;20066;-75
2023/04/11 08:19:28;;;;;;;3.20;1.10;;;15.40;55.00;;;;;;5017007;28;20029;-76
2023/04/11 08:21:55;;;;;;;4.70;1.45;;;15.40;55.00;;;;;;5003537;28;20068;-76
2023/04/11 08:24:21;;;;;;;4.13;1.67;;;15.40;54.90;;;;;;5017879;28;20037;-76
2023/04/11 08:26:46;;;;;;;4.22;1.92;;;15.50;55.00;;;;;;5015230;28;20093;-77
2023/04/11 08:29:12;;;;;;;7.13;2.53;;;15.50;54.90;;;;;;5022000;28;20500;-73
2023/04/11 08:31:45;;;;;;;4.55;1.52;;;15.50;54.80;;;;;;5017334;28;20103;-73
2023/04/11 08:34:11;;;;;;;6.65;1.73;;;15.50;54.80;;;;;;5023661;28;20477;-75
2023/04/11 08:36:37;;;;;;;5.32;1.75;;;15.50;54.80;;;;;;5017449;28;20189;-76
2023/04/11 08:39:03;;;;;;;5.43;2.30;;;15.50;54.80;;;;;;5007529;28;20184;-76
2023/04/11 08:41:29;;;;;;;6.28;2.33;;;15.50;54.70;;;;;;5037960;28;20028;-78
2023/04/11 08:43:56;;;;;;;5.07;1.73;;;15.50;54.70;;;;;;5029680;28;20435;-75
2023/04/11 08:46:22;;;;;;;4.53;1.50;;;15.50;54.60;;;;;;5035850;28;20025;-77
2023/04/11 08:48:49;;;;;;;5.22;2.17;;;15.50;54.60;;;;;;5018975;28;20057;-75
2023/04/11 08:51:21;;;;;;;8.43;2.00;;;15.50;54.60;;;;;;5027643;28;20479;-76
2023/04/11 08:53:49;;;;;;;3.75;1.48;;;15.50;54.60;;;;;;5020142;28;20048;-75
2023/04/11 08:56:18;;;;;;;5.75;1.67;;;15.50;54.60;;;;;;5033030;28;20344;-75
2023/04/11 08:58:44;;;;;;;5.35;1.70;;;15.60;54.70;;;;;;5012747;28;20041;-75
2023/04/11 09:01:30;;;;;;;7.75;2.33;;;15.60;54.60;;;;;;5017581;28;20455;-76
2023/04/11 09:04:01;;;;;;;5.57;1.83;;;15.70;54.70;;;;;;5015641;28;20052;-76
2023/04/11 09:06:31;;;;;;;5.70;1.67;;;15.90;54.70;;;;;;5011125;28;20087;-76
2023/04/11 09:09:04;;;;;;;6.53;2.35;;;16.00;54.60;;;;;;5010704;28;20565;-76
2023/04/11 09:11:30;;;;;;;6.40;2.35;;;16.20;54.70;;;;;;5003128;28;20310;-76
2023/04/11 09:14:06;;;;;;;4.35;1.70;;;16.40;54.70;;;;;;5006846;28;20072;-77
2023/04/11 09:16:34;;;;;;;4.07;1.52;;;16.60;54.60;;;;;;5017709;28;20037;-75
2023/04/11 09:19:00;;;;;;;3.95;2.17;;;16.60;54.30;;;;;;5003709;28;20034;-75
2023/04/11 09:21:28;;;;;;;7.45;1.95;;;16.80;54.50;;;;;;5013618;28;20043;-75
2023/04/11 09:24:14;;;;;;;6.15;1.98;;;16.80;54.30;;;;;;5011718;28;20372;-75
2023/04/11 09:26:40;;;;;;;6.93;2.13;;;16.90;54.30;;;;;;5023769;28;20046;-76
2023/04/11 09:29:06;;;;;;;6.05;1.80;;;17.10;54.50;;;;;;5017249;28;20119;-75
2023/04/11 09:31:43;;;;;;;7.47;1.75;;;17.20;54.30;;;;;;5006681;28;20508;-75
2023/04/11 09:34:10;;;;;;;3.85;1.70;;;17.30;54.10;;;;;;5012826;28;20032;-75
2023/04/11 09:36:37;;;;;;;6.65;1.95;;;17.40;54.20;;;;;;5012322;28;20056;-76
2023/04/11 09:39:18;;;;;;;6.88;1.77;;;17.40;54.00;;;;;;5007156;28;20022;-76
2023/04/11 09:41:44;;;;;;;4.38;1.60;;;17.40;53.70;;;;;;5007377;28;20474;-76
2023/04/11 09:44:10;;;;;;;4.38;1.15;;;17.50;53.90;;;;;;5017466;28;20659;-76
2023/04/11 09:46:54;;;;;;;7.35;2.33;;;17.50;53.70;;;;;;5006073;28;20025;-80
2023/04/11 09:49:24;;;;;;;6.07;1.73;;;17.60;53.80;;;;;;5015656;28;20044;-75
2023/04/11 09:51:51;;;;;;;8.93;1.95;;;17.60;53.60;;;;;;5020157;28;20477;-76
2023/04/11 09:54:21;;;;;;;5.40;1.75;;;17.70;53.60;;;;;;5014511;28;20063;-76
2023/04/11 09:56:49;;;;;;;6.13;1.40;;;17.80;53.60;;;;;;5011604;28;20414;-75
2023/04/11 09:59:16;;;;;;;6.10;1.73;;;17.80;53.40;;;;;;5011832;28;20049;-77
2023/04/11 10:01:42;;;;;;;8.25;2.15;;;17.90;53.30;;;;;;5012002;28;20038;-77
2023/04/11 10:04:09;;;;;;;7.40;2.08;;;18.00;53.30;;;;;;5015875;28;20048;-76
2023/04/11 10:07:11;;;;;;;5.88;1.88;;;18.10;53.20;;;;;;5017885;28;20039;-75
2023/04/11 10:09:42;;;;;;;6.60;1.58;;;18.20;53.00;;;;;;4996794;28;20116;-76
2023/04/11 10:12:08;;;;;;;7.60;2.22;;;18.40;53.20;;;;;;5012432;28;20037;-78
2023/04/11 10:14:37;;;;;;;10.38;2.75;;;18.50;53.20;;;;;;5007792;28;20036;-77
2023/04/11 10:17:13;;;;;;;5.82;1.88;;;18.60;53.00;;;;;;5020279;28;20441;-75
2023/04/11 10:19:39;;;;;;;7.05;1.60;;;18.80;52.90;;;;;;5005866;28;20037;-75
2023/04/11 10:22:05;;;;;;;5.63;1.70;;;18.80;52.70;;;;;;5004557;28;20180;-76
2023/04/11 10:24:31;;;;;;;5.97;1.63;;;18.90;52.50;;;;;;5003430;28;20499;-76
2023/04/11 10:26:59;;;;;;;6.97;2.47;;;19.10;52.60;;;;;;5016544;28;20270;-75
2023/04/11 10:29:29;;;;;;;5.90;2.70;;;19.20;52.50;;;;;;5006474;28;20041;-77
2023/04/11 10:32:31;;;;;;;10.55;2.80;;;19.40;52.60;;;;;;5015505;28;20488;-77
2023/04/11 10:35:19;;;;;;;5.00;1.50;;;19.50;52.20;;;;;;4995411;28;20088;-77
2023/04/11 10:37:47;;;;;;;9.27;2.83;;;19.70;52.30;;;;;;5005216;28;20068;-77
2023/04/11 10:40:14;;;;;;;5.40;2.03;;;19.90;52.40;;;;;;5012378;28;20041;-75
2023/04/11 10:42:45;;;;;;;5.20;1.30;;;20.00;52.30;;;;;;5020045;28;20033;-75
2023/04/11 10:45:20;;;;;;;5.72;2.13;;;20.20;52.30;;;;;;5003622;28;20153;-75
2023/04/11 10:47:58;;;;;;;2.97;1.38;;;20.40;52.50;;;;;;5008959;28;20497;-77
2023/04/11 10:50:29;;;;;;;5.32;1.60;;;20.50;52.50;;;;;;5013805;28;20464;-78
2023/04/11 10:53:03;;;;;;;4.25;1.40;;;20.70;52.70;;;;;;5003672;28;20026;-76
2023/04/11 10:55:41;;;;;;;4.43;1.42;;;20.80;52.70;;;;;;5008193;28;20053;-77
2023/04/11 10:58:18;;;;;;;4.13;1.52;;;21.00;52.90;;;;;;5009893;28;20034;-74
2023/04/11 11:00:53;;;;;;;3.55;1.17;;;21.20;53.10;;;;;;5008893;28;20033;-73
2023/04/11 11:03:29;;;;;;;4.57;1.23;;;21.30;53.20;;;;;;5012787;28;20513;-73
2023/04/11 11:06:13;;;;;;;5.53;1.85;;;21.40;53.10;;;;;;5005361;28;20452;-73
2023/04/11 11:08:45;;;;;;;4.38;1.23;;;21.50;52.90;;;;;;4984540;28;20523;-73
2023/04/11 11:11:12;;;;;;;4.13;1.10;;;21.60;52.90;;;;;;5016397;28;20167;-74
2023/04/11 11:13:42;;;;;;;3.90;1.17;;;21.60;52.90;;;;;;5019266;28;20305;-74
2023/04/11 11:16:12;;;;;;;2.75;1.60;;;21.60;52.90;;;;;;5016202;28;20068;-74
2023/04/11 11:18:38;;;;;;;2.90;1.13;;;21.50;52.70;;;;;;5023055;28;20025;-74
2023/04/11 11:21:04;;;;;;;2.92;1.00;;;21.40;52.60;;;;;;4991842;28;20368;-74
2023/04/11 11:23:31;;;;;;;6.53;1.42;;;21.30;52.60;;;;;;4998960;28;20025;-74
2023/04/11 11:25:59;;;;;;;4.47;2.22;;;21.10;52.50;;;;;;4986072;28;20046;-75
2023/04/11 11:28:25;;;;;;;5.25;1.48;;;21.00;52.60;;;;;;5014297;28;20033;-75
2023/04/11 11:30:53;;;;;;;3.30;1.33;;;21.00;52.80;;;;;;4988739;28;20389;-75
2023/04/11 11:33:21;;;;;;;2.95;1.38;;;20.90;52.70;;;;;;5017949;28;20389;-75
2023/04/11 11:35:57;;;;;;;5.05;1.52;;;20.90;52.80;;;;;;5005373;28;20477;-74
2023/04/11 11:38:30;;;;;;;5.15;1.48;;;20.80;52.60;;;;;;4988229;28;20095;-75
2023/04/11 11:40:57;;;;;;;5.07;1.58;;;20.80;52.70;;;;;;4986778;28;20095;-76
2023/04/11 11:43:27;;;;;;;3.95;1.52;;;20.80;52.70;;;;;;5021765;28;20037;-75
2023/04/11 11:46:09;;;;;;;2.00;1.17;;;20.70;52.60;;;;;;5022440;28;20029;-75
2023/04/11 11:48:36;;;;;;;3.90;1.87;;;20.60;52.50;;;;;;5017346;28;20612;-73
2023/04/11 11:51:02;;;;;;;5.32;2.05;;;20.50;52.50;;;;;;5016973;28;20311;-73
2023/04/11 11:53:28;;;;;;;2.72;1.25;;;20.50;52.60;;;;;;4988572;28;20037;-73
2023/04/11 11:55:55;;;;;;;4.70;2.03;;;20.40;52.60;;;;;;5017179;28;20076;-74
2023/04/11 11:58:21;;;;;;;4.07;1.52;;;20.30;52.60;;;;;;5010785;28;20465;-74
2023/04/11 12:00:49;;;;;;;4.25;1.30;;;20.20;52.60;;;;;;4984917;28;20037;-73
2023/04/11 12:03:22;;;;;;;3.30;1.20;;;20.20;52.70;;;;;;5017552;28;20038;-75
2023/04/11 12:05:51;;;;;;;4.65;1.50;;;20.10;52.60;;;;;;5008297;28;20030;-75
2023/04/11 12:08:19;;;;;;;3.75;1.10;;;20.00;52.60;;;;;;5019425;28;20285;-76
2023/04/11 12:10:46;;;;;;;3.67;1.60;;;19.90;52.50;;;;;;4987677;28;20236;-75
2023/04/11 12:13:12;;;;;;;4.53;1.13;;;19.80;52.60;;;;;;5019795;28;20026;-75
2023/04/11 12:15:40;;;;;;;4.82;1.88;;;19.80;52.80;;;;;;5006969;28;20033;-75
2023/04/11 12:18:06;;;;;;;3.70;1.13;;;19.70;52.70;;;;;;5012574;28;20855;-75
2023/04/11 12:20:32;;;;;;;3.67;1.50;;;19.60;52.60;;;;;;5019736;28;20026;-75
2023/04/11 12:22:58;;;;;;;2.92;1.63;;;19.50;52.50;;;;;;5019997;28;20099;-74
2023/04/11 12:25:27;;;;;;;3.45;1.30;;;19.50;52.60;;;;;;5018484;28;20219;-75
2023/04/11 12:27:53;;;;;;;3.63;1.65;;;19.50;52.80;;;;;;4993902;28;20093;-74
2023/04/11 12:30:19;;;;;;;2.97;1.33;;;19.40;52.70;;;;;;5007943;28;20045;-74
2023/04/11 12:32:44;;;;;;;4.20;1.40;;;19.30;52.70;;;;;;5019718;28;20503;-73
2023/04/11 12:35:11;;;;;;;3.75;1.40;;;19.30;52.80;;;;;;5006888;28;20041;-74
2023/04/11 12:37:37;;;;;;;4.60;1.48;;;19.20;52.70;;;;;;5009612;28;20716;-74
2023/04/11 12:40:08;;;;;;;2.08;1.02;;;19.20;52.80;;;;;;5003414;28;20433;-74
2023/04/11 12:42:33;;;;;;;3.78;1.33;;;19.20;52.80;;;;;;5018331;28;20044;-74
2023/04/11 12:44:59;;;;;;;3.47;1.20;;;19.10;52.70;;;;;;5019640;28;20029;-74
2023/04/11 12:47:25;;;;;;;3.78;1.10;;;19.10;52.80;;;;;;5008115;28;20127;-74
2023/04/11 12:49:51;;;;;;;4.75;1.38;;;19.10;52.90;;;;;;5011755;28;20044;-74